createdAt,value
2019-05-15T00:00:58.847Z,79.83
2019-05-15T00:01:58.467Z,79.56
2019-05-15T00:02:58.970Z,79.56
2019-05-15T00:03:58.529Z,80.29
2019-05-15T00:04:58.508Z,80.91
2019-05-15T00:05:58.613Z,81.33
2019-05-15T00:06:58.271Z,81.89
2019-05-15T00:07:59.298Z,81.99
2019-05-15T00:08:58.798Z,81.89
2019-05-15T00:09:58.594Z,83.04
2019-05-15T00:10:58.679Z,81.93
2019-05-15T00:11:59.022Z,82.45
2019-05-15T00:12:58.085Z,83.70
2019-05-15T00:13:58.981Z,83.39
2019-05-15T00:14:58.131Z,84.12
2019-05-15T00:15:58.996Z,84.74
2019-05-15T00:16:58.644Z,83.28
2019-05-15T00:17:57.946Z,83.28
2019-05-15T00:18:59.076Z,82.87
2019-05-15T00:19:58.235Z,81.72
2019-05-15T00:20:59.537Z,81.37
2019-05-15T00:21:58.556Z,81.37
2019-05-15T00:22:58.815Z,80.33
2019-05-15T00:23:58.641Z,80.74
2019-05-15T00:24:58.175Z,80.57
2019-05-15T00:25:58.452Z,80.64
2019-05-15T00:26:58.865Z,80.22
2019-05-15T00:27:58.245Z,80.12
2019-05-15T00:29:09.506Z,79.70
2019-05-15T00:29:58.290Z,80.12
2019-05-15T00:30:58.274Z,80.08
2019-05-15T00:31:58.948Z,79.70
2019-05-15T00:32:58.866Z,80.12
2019-05-15T00:33:58.912Z,80.12
2019-05-15T00:34:58.292Z,79.08
2019-05-15T00:35:58.988Z,79.80
2019-05-15T00:36:58.390Z,80.22
2019-05-15T00:37:58.513Z,80.43
2019-05-15T00:38:59.066Z,79.80
2019-05-15T00:39:59.075Z,80.60
2019-05-15T00:40:58.448Z,80.43
2019-05-15T00:41:59.030Z,80.74
2019-05-15T00:42:57.921Z,80.29
2019-05-15T00:43:58.495Z,80.22
2019-05-15T00:44:58.466Z,79.91
2019-05-15T00:45:58.558Z,80.43
2019-05-15T00:46:58.233Z,80.74
2019-05-15T00:47:57.941Z,81.16
2019-05-15T00:48:59.223Z,80.64
2019-05-15T00:49:58.061Z,81.16
2019-05-15T00:50:59.017Z,80.95
2019-05-15T00:51:59.029Z,79.91
2019-05-15T00:52:58.960Z,80.85
2019-05-15T00:53:58.932Z,80.85
2019-05-15T00:54:58.963Z,80.88
2019-05-15T00:55:58.054Z,81.41
2019-05-15T00:56:57.956Z,81.93
2019-05-15T00:57:58.946Z,82.24
2019-05-15T00:58:58.845Z,80.36
2019-05-15T00:59:58.911Z,81.51
2019-05-15T01:00:59.026Z,81.96
2019-05-15T01:01:59.292Z,81.96
2019-05-15T01:02:57.855Z,82.53
2019-05-15T01:03:58.632Z,83.67
2019-05-15T01:04:58.512Z,83.98
2019-05-15T01:05:58.618Z,84.23
2019-05-15T01:06:58.848Z,84.75
2019-05-15T01:07:58.681Z,84.86
2019-05-15T01:08:58.878Z,85.38
2019-05-15T01:09:57.954Z,85.06
2019-05-15T01:10:58.213Z,85.49
2019-05-15T01:11:58.671Z,85.06
2019-05-15T01:12:58.370Z,85.90
2019-05-15T01:13:58.539Z,85.27
2019-05-15T01:14:58.336Z,85.17
2019-05-15T01:15:58.259Z,85.24
2019-05-15T01:16:58.239Z,84.50
2019-05-15T01:17:58.300Z,84.09
2019-05-15T01:18:58.560Z,84.34
2019-05-15T01:19:58.725Z,84.65
2019-05-15T01:20:58.641Z,84.75
2019-05-15T01:21:58.726Z,85.00
2019-05-15T01:22:59.021Z,86.05
2019-05-15T01:23:58.803Z,85.21
2019-05-15T01:24:58.845Z,86.19
2019-05-15T01:25:58.704Z,87.13
2019-05-15T01:26:58.529Z,87.55
2019-05-15T01:27:58.336Z,87.45
2019-05-15T01:28:58.410Z,88.07
2019-05-15T01:29:58.170Z,88.39
2019-05-15T01:30:56.604Z,87.07
2019-05-15T01:31:59.100Z,88.39
2019-05-15T01:32:59.050Z,88.42
2019-05-15T01:33:58.302Z,88.95
2019-05-15T01:34:58.066Z,88.17
2019-05-15T01:35:58.887Z,88.42
2019-05-15T01:36:58.954Z,88.74
2019-05-15T01:37:58.520Z,89.47
2019-05-15T01:38:58.409Z,89.15
2019-05-15T01:39:58.131Z,89.58
2019-05-15T01:40:58.981Z,89.05
2019-05-15T01:41:58.427Z,88.53
2019-05-15T01:42:58.281Z,88.95
2019-05-15T01:43:58.120Z,89.30
2019-05-15T01:44:58.828Z,89.68
2019-05-15T01:45:58.732Z,89.68
2019-05-15T01:46:58.888Z,89.61
2019-05-15T01:47:58.561Z,89.30
2019-05-15T01:48:58.504Z,89.72
2019-05-15T01:49:58.291Z,90.56
2019-05-15T01:50:58.488Z,91.18
2019-05-15T01:51:58.488Z,91.50
2019-05-15T01:52:58.488Z,91.81
2019-05-15T01:53:58.262Z,91.39
2019-05-15T01:54:58.263Z,92.13
2019-05-15T01:55:58.763Z,92.23
2019-05-15T01:56:58.562Z,92.02
2019-05-15T01:57:58.178Z,92.33
2019-05-15T01:58:57.961Z,93.27
2019-05-15T01:59:58.293Z,92.75
2019-05-15T02:00:56.272Z,92.75
2019-05-15T02:01:58.868Z,93.17
2019-05-15T02:02:58.611Z,93.07
2019-05-15T02:03:56.247Z,93.38
2019-05-15T02:04:58.962Z,92.65
2019-05-15T02:05:58.486Z,92.92
2019-05-15T02:06:58.748Z,93.07
2019-05-15T02:07:58.398Z,91.91
2019-05-15T02:08:58.545Z,92.13
2019-05-15T02:09:58.212Z,93.17
2019-05-15T02:10:58.607Z,93.11
2019-05-15T02:11:58.158Z,93.21
2019-05-15T02:12:58.634Z,93.32
2019-05-15T02:13:56.134Z,93.21
2019-05-15T02:14:56.148Z,92.42
2019-05-15T02:15:56.118Z,92.31
2019-05-15T02:16:56.126Z,92.63
2019-05-15T02:17:56.094Z,93.51
2019-05-15T02:18:58.096Z,94.40
2019-05-15T02:19:56.083Z,94.62
2019-05-15T02:20:58.519Z,94.82
2019-05-15T02:21:57.909Z,94.72
2019-05-15T02:22:56.061Z,94.51
2019-05-15T02:23:56.028Z,94.93
2019-05-15T02:24:56.014Z,94.72
2019-05-15T02:25:56.007Z,94.72
2019-05-15T02:26:56.025Z,94.30
2019-05-15T02:27:58.570Z,94.30
2019-05-15T02:28:55.973Z,94.66
2019-05-15T02:30:12.989Z,95.60
2019-05-15T02:30:58.719Z,95.14
2019-05-15T02:31:58.857Z,94.66
2019-05-15T02:32:58.916Z,94.87
2019-05-15T02:33:58.824Z,95.39
2019-05-15T02:34:58.871Z,95.29
2019-05-15T02:35:55.900Z,95.07
2019-05-15T02:36:55.890Z,95.81
2019-05-15T02:37:55.892Z,95.70
2019-05-15T02:38:59.474Z,95.60
2019-05-15T02:39:58.779Z,95.39
2019-05-15T02:40:59.005Z,95.60
2019-05-15T02:41:55.853Z,95.60
2019-05-15T02:42:58.964Z,95.23
2019-05-15T02:43:59.013Z,95.50
2019-05-15T02:44:58.509Z,95.39
2019-05-15T02:45:55.801Z,95.81
2019-05-15T02:46:58.622Z,95.18
2019-05-15T02:47:55.782Z,95.60
2019-05-15T02:48:55.774Z,95.43
2019-05-15T02:49:55.754Z,94.91
2019-05-15T02:50:58.658Z,95.18
2019-05-15T02:51:55.729Z,96.48
2019-05-15T02:52:55.736Z,96.23
2019-05-15T02:53:58.378Z,95.39
2019-05-15T02:54:55.696Z,95.23
2019-05-15T02:55:55.684Z,96.06
2019-05-15T02:56:58.778Z,96.17
2019-05-15T02:57:58.891Z,96.23
2019-05-15T02:58:55.652Z,96.12
2019-05-15T02:59:55.655Z,96.44
2019-05-15T03:00:58.904Z,95.50
2019-05-15T03:01:55.620Z,95.39
2019-05-15T03:02:55.643Z,95.60
2019-05-15T03:03:55.624Z,94.66
2019-05-15T03:04:55.610Z,94.66
2019-05-15T03:05:55.584Z,94.87
2019-05-15T03:06:55.567Z,94.81
2019-05-15T03:07:59.090Z,95.01
2019-05-15T03:08:55.559Z,95.12
2019-05-15T03:09:55.557Z,95.33
2019-05-15T03:10:58.951Z,95.64
2019-05-15T03:11:58.458Z,95.96
2019-05-15T03:12:55.502Z,95.75
2019-05-15T03:13:55.523Z,95.33
2019-05-15T03:14:55.483Z,96.17
2019-05-15T03:15:55.475Z,96.17
2019-05-15T03:16:55.477Z,95.75
2019-05-15T03:17:55.458Z,96.75
2019-05-15T03:18:56.624Z,96.96
2019-05-15T03:19:58.900Z,96.75
2019-05-15T03:20:55.418Z,96.27
2019-05-15T03:21:55.408Z,95.39
2019-05-15T03:22:55.409Z,95.54
2019-05-15T03:23:55.382Z,95.43
2019-05-15T03:24:55.388Z,96.27
2019-05-15T03:25:55.363Z,96.75
2019-05-15T03:26:55.375Z,95.81
2019-05-15T03:27:55.342Z,95.75
2019-05-15T03:28:55.343Z,96.06
2019-05-15T03:29:55.320Z,95.81
2019-05-15T03:31:41.448Z,95.92
2019-05-15T03:32:13.180Z,95.81
2019-05-15T03:33:02.022Z,96.44
2019-05-15T03:34:02.107Z,95.92
2019-05-15T03:35:03.575Z,96.23
2019-05-15T03:36:01.763Z,95.86
2019-05-15T03:36:56.261Z,96.33
2019-05-15T03:37:55.270Z,96.12
2019-05-15T03:38:55.236Z,95.92
2019-05-15T03:39:55.215Z,96.06
2019-05-15T03:40:55.215Z,96.48
2019-05-15T03:41:55.192Z,95.29
2019-05-15T03:42:55.183Z,95.29
2019-05-15T03:43:55.184Z,95.39
2019-05-15T03:44:55.161Z,95.50
2019-05-15T03:45:55.157Z,95.39
2019-05-15T03:46:55.154Z,95.29
2019-05-15T03:47:55.146Z,94.66
2019-05-15T03:48:55.118Z,94.45
2019-05-15T03:49:55.126Z,94.56
2019-05-15T03:50:55.098Z,94.24
2019-05-15T03:51:55.092Z,94.76
2019-05-15T03:52:55.086Z,94.87
2019-05-15T03:53:55.070Z,94.97
2019-05-15T03:54:55.083Z,95.18
2019-05-15T03:55:55.046Z,94.97
2019-05-15T03:56:55.032Z,95.60
2019-05-15T03:57:55.021Z,95.50
2019-05-15T03:58:55.021Z,95.60
2019-05-15T03:59:55.011Z,94.87
2019-05-15T04:00:55.009Z,95.29
2019-05-15T04:01:54.988Z,95.50
2019-05-15T04:02:54.965Z,95.60
2019-05-15T04:03:54.955Z,95.35
2019-05-15T04:04:58.031Z,95.60
2019-05-15T04:05:55.952Z,95.14
2019-05-15T04:06:54.928Z,94.93
2019-05-15T04:07:54.919Z,95.03
2019-05-15T04:08:54.901Z,95.35
2019-05-15T04:09:54.899Z,95.45
2019-05-15T04:10:55.038Z,94.89
2019-05-15T04:11:54.882Z,94.72
2019-05-15T04:12:54.868Z,94.93
2019-05-15T04:13:54.858Z,94.36
2019-05-15T04:14:54.844Z,94.68
2019-05-15T04:15:54.836Z,94.78
2019-05-15T04:16:54.841Z,94.46
2019-05-15T04:17:54.810Z,93.90
2019-05-15T04:18:54.796Z,93.59
2019-05-15T04:19:54.786Z,93.74
2019-05-15T04:20:54.779Z,93.42
2019-05-15T04:21:54.776Z,93.59
2019-05-15T04:22:54.769Z,93.84
2019-05-15T04:23:54.757Z,93.27
2019-05-15T04:24:54.734Z,93.80
2019-05-15T04:25:54.721Z,94.46
2019-05-15T04:26:54.713Z,94.64
2019-05-15T04:27:54.738Z,94.21
2019-05-15T04:28:54.706Z,94.17
2019-05-15T04:29:54.677Z,94.59
2019-05-15T04:30:54.667Z,93.65
2019-05-15T04:32:00.983Z,93.76
2019-05-15T04:32:55.658Z,93.29
2019-05-15T04:33:54.636Z,93.33
2019-05-15T04:34:54.666Z,92.71
2019-05-15T04:35:54.630Z,92.04
2019-05-15T04:36:54.602Z,92.50
2019-05-15T04:37:54.593Z,91.66
2019-05-15T04:38:54.586Z,92.98
2019-05-15T04:39:54.588Z,93.54
2019-05-15T04:40:54.602Z,93.44
2019-05-15T04:41:54.550Z,93.02
2019-05-15T04:42:54.546Z,93.08
2019-05-15T04:43:54.530Z,92.98
2019-05-15T04:44:54.525Z,92.41
2019-05-15T04:45:54.507Z,93.04
2019-05-15T04:46:54.521Z,92.69
2019-05-15T04:47:54.484Z,91.85
2019-05-15T04:48:54.480Z,92.12
2019-05-15T04:49:54.466Z,90.97
2019-05-15T04:50:54.453Z,91.35
2019-05-15T04:51:54.472Z,91.04
2019-05-15T04:52:54.436Z,91.08
2019-05-15T04:53:54.416Z,90.52
2019-05-15T04:54:54.423Z,90.79
2019-05-15T04:55:54.405Z,89.62
2019-05-15T04:56:54.388Z,87.71
2019-05-15T04:57:54.389Z,84.51
2019-05-15T04:58:54.368Z,79.29
2019-05-15T04:59:54.355Z,74.19
2019-05-15T05:00:54.357Z,70.89
2019-05-15T05:02:12.987Z,66.96
2019-05-15T05:02:55.346Z,64.43
2019-05-15T05:03:54.312Z,62.49
2019-05-15T05:04:54.298Z,62.43
2019-05-15T05:05:54.302Z,56.74
2019-05-15T05:06:54.276Z,56.79
2019-05-15T05:07:54.264Z,56.10
2019-05-15T05:08:54.302Z,56.15
2019-05-15T05:09:54.244Z,51.93
2019-05-15T05:10:54.230Z,49.98
2019-05-15T05:11:54.231Z,49.24
2019-05-15T05:12:54.208Z,49.67
2019-05-15T05:13:54.195Z,50.69
2019-05-15T05:14:54.200Z,50.48
2019-05-15T05:15:54.174Z,50.77
2019-05-15T05:16:54.169Z,51.84
2019-05-15T05:17:54.175Z,48.74
2019-05-15T05:18:54.143Z,47.19
2019-05-15T05:19:54.154Z,46.76
2019-05-15T05:20:54.117Z,44.91
2019-05-15T05:21:54.108Z,45.32
2019-05-15T05:22:54.106Z,46.59
2019-05-15T05:23:54.091Z,44.95
2019-05-15T05:24:54.071Z,44.40
2019-05-15T05:25:54.075Z,42.43
2019-05-15T05:26:54.051Z,41.63
2019-05-15T05:27:54.059Z,40.59
2019-05-15T05:28:54.030Z,39.56
2019-05-15T05:29:54.029Z,39.32
2019-05-15T05:30:54.018Z,39.20
2019-05-15T05:31:54.009Z,37.42
2019-05-15T05:32:53.994Z,38.43
2019-05-15T05:33:53.975Z,39.32
2019-05-15T05:34:54.028Z,38.17
2019-05-15T05:35:53.960Z,38.31
2019-05-15T05:36:53.941Z,38.59
2019-05-15T05:37:53.937Z,37.87
2019-05-15T05:38:53.919Z,37.26
2019-05-15T05:39:53.907Z,36.79
2019-05-15T05:40:53.929Z,36.81
2019-05-15T05:41:53.881Z,38.81
2019-05-15T05:42:53.918Z,40.69
2019-05-15T05:43:53.861Z,42.29
2019-05-15T05:44:53.854Z,42.19
2019-05-15T05:45:53.855Z,41.52
2019-05-15T05:46:53.873Z,40.47
2019-05-15T05:47:53.840Z,40.53
2019-05-15T05:48:53.804Z,38.70
2019-05-15T05:49:53.792Z,39.23
2019-05-15T05:50:53.785Z,38.81
2019-05-15T05:51:53.784Z,41.03
2019-05-15T05:52:53.782Z,41.63
2019-05-15T05:53:53.762Z,42.88
2019-05-15T05:54:53.741Z,42.92
2019-05-15T05:55:53.731Z,42.10
2019-05-15T05:56:53.720Z,42.98
2019-05-15T05:57:53.705Z,45.20
2019-05-15T05:58:53.736Z,45.28
2019-05-15T05:59:53.691Z,46.75
2019-05-15T06:00:53.679Z,45.10
2019-05-15T06:01:53.660Z,44.92
2019-05-15T06:02:53.659Z,45.16
2019-05-15T06:03:53.640Z,43.02
2019-05-15T06:04:53.666Z,40.72
2019-05-15T06:05:53.627Z,40.69
2019-05-15T06:07:06.164Z,40.79
2019-05-15T06:07:54.591Z,39.92
2019-05-15T06:08:53.588Z,38.67
2019-05-15T06:09:53.571Z,38.43
2019-05-15T06:10:53.581Z,37.49
2019-05-15T06:11:53.592Z,39.94
2019-05-15T06:12:53.539Z,39.43
2019-05-15T06:13:53.529Z,38.59
2019-05-15T06:14:53.547Z,37.12
2019-05-15T06:15:53.512Z,37.10
2019-05-15T06:16:53.502Z,36.69
2019-05-15T06:17:53.491Z,36.61
2019-05-15T06:18:53.471Z,36.88
2019-05-15T06:19:53.460Z,36.77
2019-05-15T06:20:53.460Z,39.04
2019-05-15T06:21:57.319Z,39.94
2019-05-15T06:22:53.426Z,37.76
2019-05-15T06:23:55.975Z,36.69
2019-05-15T06:24:53.404Z,36.39
2019-05-15T06:25:53.416Z,36.66
2019-05-15T06:26:53.397Z,35.73
2019-05-15T06:27:53.371Z,36.82
2019-05-15T06:28:53.359Z,34.79
2019-05-15T06:29:53.356Z,35.68
2019-05-15T06:30:53.363Z,34.56
2019-05-15T06:31:53.328Z,34.12
2019-05-15T06:33:04.440Z,34.39
2019-05-15T06:33:54.304Z,35.46
2019-05-15T06:34:53.299Z,35.36
2019-05-15T06:35:53.298Z,35.55
2019-05-15T06:36:53.298Z,37.05
2019-05-15T06:37:53.264Z,38.81
2019-05-15T06:38:53.250Z,38.18
2019-05-15T06:39:53.241Z,36.79
2019-05-15T06:40:53.245Z,35.66
2019-05-15T06:41:53.228Z,35.13
2019-05-15T06:42:53.208Z,35.50
2019-05-15T06:43:53.208Z,33.13
2019-05-15T06:44:53.187Z,32.81
2019-05-15T06:45:53.176Z,33.62
2019-05-15T06:46:53.165Z,33.59
2019-05-15T06:47:53.152Z,35.80
2019-05-15T06:48:53.178Z,33.58
2019-05-15T06:49:53.135Z,33.16
2019-05-15T06:50:53.120Z,33.88
2019-05-15T06:51:53.113Z,32.76
2019-05-15T06:52:53.098Z,33.73
2019-05-15T06:53:53.088Z,32.41
2019-05-15T06:54:53.097Z,31.19
2019-05-15T06:55:53.069Z,30.97
2019-05-15T06:56:53.055Z,31.52
2019-05-15T06:57:53.071Z,32.12
2019-05-15T06:58:53.036Z,31.19
2019-05-15T06:59:53.032Z,31.16
2019-05-15T07:00:53.017Z,31.09
2019-05-15T07:01:53.009Z,32.84
2019-05-15T07:02:52.989Z,32.63
2019-05-15T07:03:53.010Z,31.71
2019-05-15T07:04:52.978Z,31.10
2019-05-15T07:05:52.971Z,31.22
2019-05-15T07:06:52.951Z,31.55
2019-05-15T07:07:52.934Z,31.24
2019-05-15T07:08:52.934Z,32.29
2019-05-15T07:09:52.948Z,32.32
2019-05-15T07:10:52.911Z,33.64
2019-05-15T07:11:52.907Z,32.60
2019-05-15T07:12:52.880Z,33.07
2019-05-15T07:13:52.869Z,31.33
2019-05-15T07:14:52.858Z,31.32
2019-05-15T07:15:52.874Z,31.51
2019-05-15T07:16:52.853Z,31.60
2019-05-15T07:17:52.825Z,31.65
2019-05-15T07:18:52.819Z,32.87
2019-05-15T07:19:52.804Z,32.57
2019-05-15T07:20:52.816Z,35.16
2019-05-15T07:21:52.794Z,38.39
2019-05-15T07:22:52.782Z,40.36
2019-05-15T07:23:52.780Z,39.82
2019-05-15T07:24:52.751Z,40.20
2019-05-15T07:25:52.757Z,39.64
2019-05-15T07:26:52.747Z,40.42
2019-05-15T07:27:52.756Z,42.25
2019-05-15T07:28:52.729Z,41.38
2019-05-15T07:29:52.708Z,39.31
2019-05-15T07:30:52.714Z,36.32
2019-05-15T07:31:52.684Z,35.90
2019-05-15T07:32:52.663Z,34.52
2019-05-15T07:33:52.676Z,35.82
2019-05-15T07:34:52.693Z,34.89
2019-05-15T07:35:52.643Z,34.61
2019-05-15T07:36:52.623Z,35.35
2019-05-15T07:37:52.634Z,38.40
2019-05-15T07:38:52.655Z,39.15
2019-05-15T07:39:52.598Z,36.05
2019-05-15T07:40:59.451Z,35.08
2019-05-15T07:41:53.570Z,34.94
2019-05-15T07:42:52.557Z,34.52
2019-05-15T07:43:52.618Z,35.75
2019-05-15T07:44:52.557Z,35.36
2019-05-15T07:45:55.288Z,35.50
2019-05-15T07:46:52.524Z,39.25
2019-05-15T07:47:52.502Z,38.81
2019-05-15T07:48:52.494Z,35.70
2019-05-15T07:49:52.496Z,36.21
2019-05-15T07:50:52.482Z,35.01
2019-05-15T07:51:52.458Z,35.92
2019-05-15T07:52:52.460Z,39.23
2019-05-15T07:53:52.459Z,38.81
2019-05-15T07:54:52.443Z,39.42
2019-05-15T07:55:52.516Z,38.35
2019-05-15T07:56:52.408Z,34.64
2019-05-15T07:57:52.399Z,34.19
2019-05-15T07:58:52.910Z,32.73
2019-05-15T07:59:52.391Z,31.51
2019-05-15T08:00:52.371Z,32.39
2019-05-15T08:01:52.354Z,37.21
2019-05-15T08:02:52.342Z,38.37
2019-05-15T08:04:09.324Z,33.88
2019-05-15T08:04:53.345Z,33.84
2019-05-15T08:06:00.094Z,31.43
2019-05-15T08:06:53.303Z,35.31
2019-05-15T08:07:52.285Z,34.62
2019-05-15T08:08:52.280Z,35.14
2019-05-15T08:09:52.295Z,37.01
2019-05-15T08:10:52.256Z,36.76
2019-05-15T08:11:52.243Z,35.11
2019-05-15T08:12:52.237Z,36.62
2019-05-15T08:13:52.224Z,37.18
2019-05-15T08:14:52.229Z,38.07
2019-05-15T08:15:52.224Z,37.35
2019-05-15T08:16:52.195Z,34.92
2019-05-15T08:18:03.283Z,37.32
2019-05-15T08:18:53.177Z,39.29
2019-05-15T08:19:52.170Z,38.77
2019-05-15T08:20:52.177Z,38.93
2019-05-15T08:21:52.156Z,39.37
2019-05-15T08:22:52.145Z,38.41
2019-05-15T08:23:52.138Z,37.37
2019-05-15T08:24:52.109Z,38.59
2019-05-15T08:25:52.097Z,35.85
2019-05-15T08:26:52.137Z,35.13
2019-05-15T08:27:52.087Z,35.19
2019-05-15T08:28:52.063Z,35.90
2019-05-15T08:29:52.054Z,38.41
2019-05-15T08:30:52.104Z,40.31
2019-05-15T08:31:52.050Z,37.84
2019-05-15T08:32:52.045Z,35.66
2019-05-15T08:33:52.016Z,34.61
2019-05-15T08:34:52.013Z,33.92
2019-05-15T08:35:52.185Z,32.39
2019-05-15T08:36:52.001Z,34.52
2019-05-15T08:37:51.971Z,33.76
2019-05-15T08:38:51.967Z,34.36
2019-05-15T08:39:52.037Z,35.05
2019-05-15T08:40:51.940Z,34.52
2019-05-15T08:41:51.978Z,35.03
2019-05-15T08:42:56.533Z,34.63
2019-05-15T08:43:52.912Z,33.64
2019-05-15T08:44:51.902Z,33.72
2019-05-15T08:45:51.885Z,32.39
2019-05-15T08:46:51.887Z,32.51
2019-05-15T08:47:51.926Z,35.14
2019-05-15T08:48:51.855Z,35.08
2019-05-15T08:49:51.837Z,34.96
2019-05-15T08:50:51.833Z,34.88
2019-05-15T08:51:51.856Z,35.25
2019-05-15T08:52:51.816Z,33.51
2019-05-15T08:53:51.829Z,33.53
2019-05-15T08:54:51.793Z,33.73
2019-05-15T08:55:51.773Z,34.12
2019-05-15T08:56:51.771Z,33.59
2019-05-15T08:57:55.549Z,33.07
2019-05-15T08:58:51.742Z,32.85
2019-05-15T08:59:51.736Z,32.56
2019-05-15T09:00:52.551Z,31.16
2019-05-15T09:01:51.711Z,32.98
2019-05-15T09:02:51.708Z,32.58
2019-05-15T09:03:51.699Z,35.33
2019-05-15T09:04:51.688Z,34.92
2019-05-15T09:05:51.668Z,33.20
2019-05-15T09:06:51.690Z,33.51
2019-05-15T09:07:51.655Z,34.31
2019-05-15T09:08:51.650Z,33.00
2019-05-15T09:09:51.625Z,33.22
2019-05-15T09:10:51.632Z,35.33
2019-05-15T09:11:51.614Z,35.45
2019-05-15T09:12:54.291Z,35.28
2019-05-15T09:13:53.421Z,36.81
2019-05-15T09:14:51.581Z,36.64
2019-05-15T09:15:51.561Z,36.55
2019-05-15T09:16:51.574Z,36.69
2019-05-15T09:18:00.456Z,38.65
2019-05-15T09:18:52.541Z,39.37
2019-05-15T09:19:51.519Z,38.68
2019-05-15T09:20:51.531Z,39.72
2019-05-15T09:21:51.499Z,41.66
2019-05-15T09:22:51.503Z,40.75
2019-05-15T09:23:51.472Z,40.34
2019-05-15T09:24:51.463Z,39.64
2019-05-15T09:25:51.465Z,39.64
2019-05-15T09:26:51.442Z,39.65
2019-05-15T09:27:51.432Z,40.04
2019-05-15T09:28:51.448Z,40.65
2019-05-15T09:29:51.411Z,40.43
2019-05-15T09:30:51.412Z,42.35
2019-05-15T09:31:51.406Z,40.73
2019-05-15T09:32:51.377Z,41.85
2019-05-15T09:33:51.368Z,42.78
2019-05-15T09:34:55.155Z,40.43
2019-05-15T09:35:51.381Z,40.63
2019-05-15T09:36:51.342Z,41.77
2019-05-15T09:37:51.329Z,42.23
2019-05-15T09:38:51.317Z,43.06
2019-05-15T09:39:51.310Z,41.34
2019-05-15T09:40:51.418Z,40.85
2019-05-15T09:41:54.467Z,40.04
2019-05-15T09:42:51.281Z,43.41
2019-05-15T09:43:51.269Z,44.62
2019-05-15T09:44:51.259Z,41.60
2019-05-15T09:45:51.238Z,42.98
2019-05-15T09:46:51.222Z,42.66
2019-05-15T09:47:51.219Z,43.47
2019-05-15T09:48:52.011Z,42.57
2019-05-15T09:49:51.190Z,42.25
2019-05-15T09:50:51.179Z,42.11
2019-05-15T09:51:51.168Z,39.48
2019-05-15T09:52:51.160Z,40.45
2019-05-15T09:53:51.152Z,40.73
2019-05-15T09:54:51.176Z,38.73
2019-05-15T09:55:51.127Z,38.23
2019-05-15T09:56:51.116Z,38.35
2019-05-15T09:57:51.115Z,37.34
2019-05-15T09:58:51.102Z,38.67
2019-05-15T09:59:51.098Z,37.96
2019-05-15T10:00:53.079Z,38.46
2019-05-15T10:01:51.073Z,37.35
2019-05-15T10:02:51.083Z,40.29
2019-05-15T10:03:51.041Z,42.15
2019-05-15T10:05:05.511Z,39.60
2019-05-15T10:05:52.012Z,39.78
2019-05-15T10:06:51.017Z,38.95
2019-05-15T10:07:51.003Z,38.55
2019-05-15T10:08:51.011Z,39.66
2019-05-15T10:09:52.493Z,38.67
2019-05-15T10:10:50.978Z,37.13
2019-05-15T10:11:50.955Z,38.93
2019-05-15T10:12:50.987Z,38.21
2019-05-15T10:13:50.931Z,36.90
2019-05-15T10:14:50.933Z,37.10
2019-05-15T10:15:51.352Z,37.38
2019-05-15T10:16:50.913Z,39.95
2019-05-15T10:17:51.352Z,38.82
2019-05-15T10:18:51.305Z,38.21
2019-05-15T10:19:50.920Z,39.12
2019-05-15T10:20:50.878Z,38.92
2019-05-15T10:21:52.996Z,36.99
2019-05-15T10:22:50.839Z,37.30
2019-05-15T10:23:50.832Z,38.81
2019-05-15T10:24:51.164Z,40.34
2019-05-15T10:25:50.807Z,40.85
2019-05-15T10:26:50.808Z,41.95
2019-05-15T10:27:50.790Z,41.77
2019-05-15T10:28:50.780Z,43.18
2019-05-15T10:29:50.772Z,42.07
2019-05-15T10:30:50.743Z,39.92
2019-05-15T10:31:50.743Z,39.60
2019-05-15T10:32:50.734Z,40.63
2019-05-15T10:33:50.716Z,43.61
2019-05-15T10:34:50.730Z,44.30
2019-05-15T10:35:50.696Z,42.88
2019-05-15T10:36:50.679Z,42.25
2019-05-15T10:37:50.728Z,44.20
2019-05-15T10:38:50.719Z,42.57
2019-05-15T10:39:52.757Z,42.55
2019-05-15T10:41:03.644Z,42.09
2019-05-15T10:41:51.643Z,42.92
2019-05-15T10:42:50.628Z,46.45
2019-05-15T10:43:56.544Z,42.47
2019-05-15T10:44:51.591Z,40.73
2019-05-15T10:45:54.465Z,41.72
2019-05-15T10:46:50.593Z,41.08
2019-05-15T10:47:50.603Z,42.47
2019-05-15T10:48:50.553Z,39.95
2019-05-15T10:49:50.549Z,38.53
2019-05-15T10:50:50.568Z,40.25
2019-05-15T10:51:50.520Z,40.84
2019-05-15T10:52:50.499Z,42.15
2019-05-15T10:53:50.494Z,42.19
2019-05-15T10:54:50.478Z,42.82
2019-05-15T10:55:50.482Z,44.74
2019-05-15T10:56:50.480Z,41.16
2019-05-15T10:57:50.507Z,41.16
2019-05-15T10:58:50.802Z,42.68
2019-05-15T10:59:50.428Z,44.50
2019-05-15T11:00:50.420Z,45.07
2019-05-15T11:01:50.420Z,43.12
2019-05-15T11:02:50.412Z,41.28
2019-05-15T11:03:50.434Z,42.43
2019-05-15T11:04:50.392Z,42.54
2019-05-15T11:05:50.367Z,40.61
2019-05-15T11:06:50.358Z,40.91
2019-05-15T11:07:50.340Z,40.51
2019-05-15T11:08:51.478Z,39.58
2019-05-15T11:09:50.334Z,39.68
2019-05-15T11:10:50.306Z,38.65
2019-05-15T11:11:51.635Z,38.85
2019-05-15T11:12:50.284Z,38.55
2019-05-15T11:13:50.316Z,37.34
2019-05-15T11:14:50.258Z,38.73
2019-05-15T11:15:50.258Z,38.73
2019-05-15T11:16:50.237Z,37.82
2019-05-15T11:17:50.228Z,39.06
2019-05-15T11:18:53.423Z,38.75
2019-05-15T11:19:50.229Z,43.93
2019-05-15T11:20:50.197Z,39.78
2019-05-15T11:21:50.205Z,39.98
2019-05-15T11:22:50.261Z,39.76
2019-05-15T11:23:50.183Z,40.67
2019-05-15T11:24:52.983Z,39.84
2019-05-15T11:25:50.143Z,37.82
2019-05-15T11:26:50.259Z,41.78
2019-05-15T11:27:50.162Z,39.66
2019-05-15T11:28:50.126Z,39.84
2019-05-15T11:29:50.110Z,36.90
2019-05-15T11:30:50.086Z,39.22
2019-05-15T11:31:50.070Z,38.53
2019-05-15T11:32:50.064Z,39.02
2019-05-15T11:33:50.068Z,37.70
2019-05-15T11:34:50.050Z,38.21
2019-05-15T11:36:01.232Z,36.41
2019-05-15T11:36:51.018Z,38.31
2019-05-15T11:37:56.773Z,38.41
2019-05-15T11:38:50.989Z,36.81
2019-05-15T11:39:50.060Z,36.69
2019-05-15T11:40:49.970Z,38.63
2019-05-15T11:41:49.965Z,39.36
2019-05-15T11:42:49.980Z,40.51
2019-05-15T11:43:49.939Z,40.37
2019-05-15T11:44:53.183Z,39.04
2019-05-15T11:45:49.966Z,39.81
2019-05-15T11:46:49.932Z,40.50
2019-05-15T11:47:49.912Z,37.95
2019-05-15T11:48:50.052Z,37.55
2019-05-15T11:49:49.874Z,36.82
2019-05-15T11:50:49.895Z,37.02
2019-05-15T11:51:49.852Z,36.32
2019-05-15T11:52:49.870Z,39.25
2019-05-15T11:53:49.833Z,38.91
2019-05-15T11:54:49.819Z,35.68
2019-05-15T11:55:49.819Z,35.28
2019-05-15T11:56:49.797Z,39.31
2019-05-15T11:57:52.356Z,40.10
2019-05-15T11:58:50.784Z,39.28
2019-05-15T11:59:55.384Z,37.24
2019-05-15T12:00:50.754Z,36.84
2019-05-15T12:01:49.741Z,34.32
2019-05-15T12:02:49.729Z,34.72
2019-05-15T12:03:49.729Z,36.55
2019-05-15T12:04:49.714Z,35.45
2019-05-15T12:05:49.698Z,39.55
2019-05-15T12:06:58.820Z,41.79
2019-05-15T12:07:50.675Z,39.79
2019-05-15T12:08:49.698Z,39.28
2019-05-15T12:09:49.651Z,39.69
2019-05-15T12:10:49.660Z,39.42
2019-05-15T12:11:49.644Z,40.47
2019-05-15T12:12:49.871Z,41.60
2019-05-15T12:13:49.624Z,39.09
2019-05-15T12:14:49.773Z,40.31
2019-05-15T12:15:49.634Z,39.82
2019-05-15T12:17:05.156Z,40.43
2019-05-15T12:17:50.567Z,40.26
2019-05-15T12:18:49.568Z,41.97
2019-05-15T12:19:55.104Z,40.33
2019-05-15T12:20:50.583Z,40.20
2019-05-15T12:21:49.541Z,37.65
2019-05-15T12:22:49.555Z,38.53
2019-05-15T12:23:49.546Z,37.92
2019-05-15T12:24:50.160Z,39.81
2019-05-15T12:25:49.470Z,36.66
2019-05-15T12:26:49.507Z,37.79
2019-05-15T12:27:49.520Z,36.35
2019-05-15T12:28:49.449Z,35.23
2019-05-15T12:29:49.486Z,35.63
2019-05-15T12:30:49.443Z,34.61
2019-05-15T12:31:49.732Z,35.72
2019-05-15T12:32:49.527Z,34.69
2019-05-15T12:33:49.405Z,33.59
2019-05-15T12:34:49.701Z,35.41
2019-05-15T12:35:50.899Z,35.13
2019-05-15T12:36:56.656Z,34.12
2019-05-15T12:37:50.382Z,35.53
2019-05-15T12:38:50.294Z,34.72
2019-05-15T12:59:50.094Z,39.57
2019-05-15T13:00:49.111Z,39.69
2019-05-15T13:01:49.077Z,39.50
2019-05-15T13:02:49.320Z,40.82
2019-05-15T13:03:49.053Z,40.82
2019-05-15T13:04:49.056Z,39.81
2019-05-15T13:05:49.041Z,39.61
2019-05-15T13:07:10.143Z,41.61
2019-05-15T13:07:50.006Z,39.99
2019-05-15T13:08:49.106Z,42.11
2019-05-15T13:09:48.999Z,42.32
2019-05-15T13:10:48.990Z,40.19
2019-05-15T13:11:48.983Z,37.84
2019-05-15T13:13:00.915Z,38.52